createdAt,value
2017-11-16T00:01:47.882Z,-2.65
2017-11-16T00:04:36.831Z,-2.92
2017-11-16T00:07:47.376Z,-3.21
2017-11-16T00:17:28.132Z,-3.53
2017-11-16T00:20:32.828Z,-3.22
2017-11-16T00:23:23.134Z,-3.13
2017-11-16T00:26:10.185Z,-2.91
2017-11-16T00:29:11.100Z,-2.96
2017-11-16T00:35:00.063Z,-2.70
2017-11-16T00:41:35.679Z,-2.61
2017-11-16T01:15:08.218Z,-3.17
2017-11-16T01:18:36.210Z,-3.38
2017-11-16T01:39:01.905Z,-3.20
2017-11-16T01:42:23.720Z,-3.35
2017-11-16T01:45:30.174Z,-2.84
2017-11-16T02:12:32.275Z,-2.92
2017-11-16T02:59:37.256Z,-2.36
2017-11-16T03:02:54.598Z,-2.88
2017-11-16T03:29:33.343Z,-2.66
2017-11-16T03:32:00.873Z,-2.91
2017-11-16T03:34:28.395Z,-3.01
2017-11-16T03:36:55.920Z,-3.22
2017-11-16T03:39:23.439Z,-2.87
2017-11-16T03:41:50.977Z,-2.21
2017-11-16T03:44:18.499Z,-1.90
2017-11-16T03:46:46.023Z,-2.13
2017-11-16T03:49:13.532Z,-2.09
2017-11-16T03:51:41.040Z,-2.17
2017-11-16T03:54:08.572Z,-2.73
2017-11-16T03:56:36.102Z,-2.77
2017-11-16T03:59:03.658Z,-2.47
2017-11-16T04:01:31.178Z,-2.94
2017-11-16T04:03:58.697Z,-3.01
2017-11-16T04:06:26.213Z,-2.61
2017-11-16T04:08:53.733Z,-2.76
2017-11-16T04:11:21.263Z,-2.73
2017-11-16T04:13:48.848Z,-2.30
2017-11-16T04:16:16.361Z,-2.42
2017-11-16T04:18:43.900Z,-2.64
2017-11-16T04:21:11.419Z,-2.41
2017-11-16T04:23:38.948Z,-2.09
2017-11-16T04:26:06.467Z,-2.21
2017-11-16T04:28:33.981Z,-2.17
2017-11-16T04:31:01.502Z,-2.36
2017-11-16T04:33:29.032Z,-1.93
2017-11-16T04:35:56.616Z,-1.81
2017-11-16T04:38:24.757Z,-1.90
2017-11-16T04:40:52.273Z,-1.61
2017-11-16T04:43:19.799Z,-1.81
2017-11-16T04:45:47.339Z,-1.83
2017-11-16T04:48:14.834Z,-1.70
2017-11-16T04:50:42.434Z,-1.61
2017-11-16T04:53:09.964Z,-1.38
2017-11-16T04:55:37.473Z,-1.27
2017-11-16T04:58:04.983Z,-1.08
2017-11-16T05:00:32.504Z,-1.03
2017-11-16T05:02:59.999Z,-1.66
2017-11-16T05:05:27.545Z,-1.86
2017-11-16T05:07:55.052Z,-1.90
2017-11-16T05:10:22.556Z,-2.06
2017-11-16T05:12:51.267Z,-1.78
2017-11-16T05:15:18.761Z,-2.07
2017-11-16T05:17:46.266Z,-2.06
2017-11-16T05:20:13.784Z,-1.76
2017-11-16T05:22:41.292Z,-1.36
2017-11-16T05:25:08.785Z,-1.40
2017-11-16T05:27:36.298Z,-1.14
2017-11-16T05:30:03.817Z,-0.94
2017-11-16T05:32:31.325Z,-0.71
2017-11-16T05:34:58.897Z,-0.69
2017-11-16T05:37:26.415Z,-0.97
2017-11-16T05:39:53.959Z,-0.85
2017-11-16T05:42:21.456Z,-1.37
2017-11-16T05:44:48.967Z,-1.80
2017-11-16T05:47:16.593Z,-1.76
2017-11-16T05:49:44.115Z,-1.67
2017-11-16T05:52:11.628Z,-1.84
2017-11-16T05:54:39.153Z,-1.97
2017-11-16T05:57:06.771Z,-1.81
2017-11-16T05:59:34.297Z,-1.83
2017-11-16T06:02:01.827Z,-1.10
2017-11-16T06:04:29.336Z,-1.39
2017-11-16T06:06:56.858Z,-1.55
2017-11-16T06:09:24.386Z,-1.45
2017-11-16T06:11:51.912Z,-1.42
2017-11-16T06:14:19.425Z,-1.53
2017-11-16T06:16:46.947Z,-1.73
2017-11-16T06:19:14.465Z,-1.60
2017-11-16T06:21:41.974Z,-1.66
2017-11-16T06:24:09.500Z,-1.72
2017-11-16T06:26:37.022Z,-1.45
2017-11-16T06:29:04.545Z,-1.01
2017-11-16T06:31:32.062Z,-0.90
2017-11-16T06:33:59.590Z,-1.45
2017-11-16T06:36:27.118Z,-1.44
2017-11-16T06:38:54.639Z,-0.91
2017-11-16T06:41:22.146Z,-0.72
2017-11-16T06:43:49.644Z,-0.93
2017-11-16T06:46:17.182Z,-0.58
2017-11-16T06:48:44.708Z,-0.70
2017-11-16T06:51:12.219Z,-0.66
2017-11-16T06:53:39.731Z,-0.92
2017-11-16T06:56:07.241Z,-0.58
2017-11-16T06:58:34.747Z,-0.31
2017-11-16T07:01:02.261Z,-0.12
2017-11-16T07:03:29.778Z,-0.15
2017-11-16T07:05:57.292Z,-0.06
2017-11-16T07:08:24.806Z,-0.49
2017-11-16T07:10:52.311Z,-0.90
2017-11-16T07:13:19.824Z,-0.74
2017-11-16T07:15:47.343Z,-0.71
2017-11-16T07:18:14.868Z,-0.59
2017-11-16T07:20:52.199Z,-0.26
2017-11-16T07:23:19.719Z,-0.04
2017-11-16T07:25:47.237Z,0.08
2017-11-16T07:28:14.737Z,-0.44
2017-11-16T07:34:08.100Z,-0.10
2017-11-16T07:36:35.593Z,0.23
2017-11-16T07:39:03.109Z,0.28
2017-11-16T07:41:30.623Z,0.10
2017-11-16T07:43:58.125Z,0.07
2017-11-16T07:46:26.925Z,0.30
2017-11-16T07:48:54.616Z,0.04
2017-11-16T07:51:24.017Z,0.61
2017-11-16T07:53:57.536Z,0.51
2017-11-16T07:56:25.032Z,0.37
2017-11-16T07:58:52.555Z,0.64
2017-11-16T08:12:18.086Z,0.89
2017-11-16T08:29:17.403Z,0.72
2017-11-16T08:46:03.812Z,1.58
2017-11-16T08:52:21.485Z,1.20
2017-11-16T09:12:43.265Z,0.50
2017-11-16T09:36:00.637Z,0.83
2017-11-16T09:46:36.657Z,0.60
2017-11-16T09:53:17.287Z,0.68
2017-11-16T10:20:44.874Z,2.03
2017-11-16T10:40:28.763Z,3.24
2017-11-16T10:50:35.411Z,3.49
2017-11-16T11:04:20.114Z,3.27
2017-11-16T11:07:47.419Z,3.35
2017-11-16T11:11:03.897Z,3.79
2017-11-16T11:17:34.909Z,2.49
2017-11-16T11:20:56.410Z,3.23
2017-11-16T11:24:08.371Z,3.39
2017-11-16T11:30:37.898Z,2.86
2017-11-16T11:40:58.180Z,1.65
2017-11-16T11:51:03.207Z,2.53
2017-11-16T12:18:15.561Z,2.31
2017-11-16T12:24:48.173Z,3.83
2017-11-16T12:31:25.307Z,2.46
2017-11-16T12:44:48.875Z,2.47
2017-11-16T13:18:34.262Z,2.16
2017-11-16T13:21:49.830Z,2.65
2017-11-16T13:55:46.524Z,2.33
2017-11-16T14:29:40.598Z,2.53
2017-11-16T14:46:48.248Z,2.06
2017-11-16T14:50:02.160Z,2.14
2017-11-16T14:56:58.531Z,2.49
2017-11-16T15:06:57.114Z,2.45
2017-11-16T15:19:48.281Z,1.95
2017-11-16T15:23:01.663Z,1.96
2017-11-16T15:26:28.629Z,1.85
2017-11-16T15:36:42.496Z,1.93
2017-11-16T15:42:31.142Z,1.79
2017-11-16T15:44:58.685Z,1.73
2017-11-16T15:47:26.204Z,1.74
2017-11-16T15:49:53.742Z,1.73
2017-11-16T15:52:21.284Z,1.79
2017-11-16T15:54:48.784Z,1.73
2017-11-16T15:57:16.287Z,1.73
2017-11-16T15:59:43.816Z,1.69
2017-11-16T16:02:11.338Z,1.75
2017-11-16T16:04:38.850Z,1.68
2017-11-16T16:07:06.379Z,1.67
2017-11-16T16:09:33.892Z,1.85
2017-11-16T16:12:01.424Z,2.19
2017-11-16T16:14:28.923Z,2.07
2017-11-16T16:16:56.457Z,1.65
2017-11-16T16:19:24.007Z,1.53
2017-11-16T16:21:51.538Z,1.57
2017-11-16T16:24:19.059Z,1.56
2017-11-16T16:26:46.696Z,1.65
2017-11-16T16:29:14.235Z,1.76
2017-11-16T16:31:41.740Z,1.74
2017-11-16T16:34:09.233Z,1.81
2017-11-16T16:36:36.772Z,1.86
2017-11-16T16:39:04.388Z,2.03
2017-11-16T16:41:31.907Z,2.48
2017-11-16T16:43:59.426Z,2.25
2017-11-16T16:46:26.929Z,2.05
2017-11-16T16:48:54.451Z,1.73
2017-11-16T16:51:21.986Z,2.29
2017-11-16T16:53:49.486Z,2.25
2017-11-16T16:56:17.009Z,2.09
2017-11-16T16:58:44.596Z,2.09
2017-11-16T17:01:12.114Z,1.86
2017-11-16T17:03:39.659Z,1.79
2017-11-16T17:06:07.199Z,1.56
2017-11-16T17:08:34.765Z,1.94
2017-11-16T17:11:02.345Z,1.74
2017-11-16T17:13:29.842Z,1.89
2017-11-16T17:15:57.338Z,1.64
2017-11-16T17:18:24.870Z,1.35
2017-11-16T17:20:52.410Z,1.41
2017-11-16T17:23:19.944Z,1.53
2017-11-16T17:25:47.456Z,1.34
2017-11-16T17:28:15.053Z,1.39
2017-11-16T17:30:42.567Z,1.41
2017-11-16T17:33:10.067Z,1.54
2017-11-16T17:35:37.579Z,1.68
2017-11-16T17:38:05.126Z,1.69
2017-11-16T17:40:32.635Z,1.58
2017-11-16T17:43:00.189Z,1.44
2017-11-16T17:45:27.709Z,1.42
2017-11-16T17:47:55.204Z,1.42
2017-11-16T17:50:22.739Z,1.39
2017-11-16T17:52:50.248Z,1.33
2017-11-16T17:55:17.760Z,1.43
2017-11-16T17:57:45.288Z,1.56
2017-11-16T18:00:12.839Z,1.56
2017-11-16T18:02:40.362Z,1.41
2017-11-16T18:05:07.909Z,1.57
2017-11-16T18:07:35.447Z,1.58
2017-11-16T18:10:02.952Z,1.33
2017-11-16T18:12:30.442Z,1.32
2017-11-16T18:14:57.982Z,1.20
2017-11-16T18:17:25.488Z,1.23
2017-11-16T18:19:53.008Z,1.34
2017-11-16T18:22:20.552Z,1.34
2017-11-16T18:24:48.070Z,1.78
2017-11-16T18:27:15.647Z,1.60
2017-11-16T18:29:43.148Z,1.47
2017-11-16T18:32:10.660Z,1.59
2017-11-16T18:34:38.164Z,1.18
2017-11-16T18:37:05.675Z,1.37
2017-11-16T18:39:33.195Z,1.33
2017-11-16T18:42:00.716Z,1.24
2017-11-16T18:44:28.277Z,1.30
2017-11-16T18:46:55.833Z,1.60
2017-11-16T18:49:23.382Z,1.80
2017-11-16T18:51:50.938Z,1.61
2017-11-16T18:54:18.450Z,1.76
2017-11-16T18:56:45.996Z,1.65
2017-11-16T18:59:13.503Z,1.61
2017-11-16T19:12:38.841Z,1.60
2017-11-16T19:15:06.353Z,1.61
2017-11-16T19:17:33.903Z,1.55
2017-11-16T19:20:01.450Z,1.49
2017-11-16T19:22:29.003Z,1.36
2017-11-16T19:24:57.955Z,1.41
2017-11-16T19:27:29.031Z,1.43
2017-11-16T19:29:56.572Z,1.39
2017-11-16T19:32:31.984Z,1.34
2017-11-16T19:34:59.533Z,1.32
2017-11-16T19:37:27.073Z,1.57
2017-11-16T19:39:54.596Z,1.88
2017-11-16T19:42:23.982Z,1.72
2017-11-16T19:44:55.147Z,1.41
2017-11-16T19:47:22.787Z,1.33
2017-11-16T19:49:55.740Z,1.33
2017-11-16T19:52:23.265Z,1.40
2017-11-16T19:54:51.301Z,1.37
2017-11-16T19:57:18.809Z,1.36
2017-11-16T19:59:46.327Z,1.34
2017-11-16T20:02:13.882Z,1.35
2017-11-16T20:04:41.422Z,1.53
2017-11-16T20:07:12.356Z,1.46
2017-11-16T20:09:40.098Z,1.35
2017-11-16T20:12:11.804Z,1.47
2017-11-16T20:14:41.219Z,1.57
2017-11-16T20:17:10.756Z,1.46
2017-11-16T20:19:38.821Z,1.32
2017-11-16T20:22:07.692Z,1.31
2017-11-16T20:24:38.708Z,1.49
2017-11-16T20:27:26.689Z,1.44
2017-11-16T20:29:56.059Z,1.47
2017-11-16T20:32:24.148Z,1.39
2017-11-16T20:34:51.989Z,1.41
2017-11-16T20:37:30.984Z,1.39
2017-11-16T20:43:18.191Z,1.36
2017-11-16T20:45:47.568Z,1.27
2017-11-16T20:48:25.254Z,1.22
2017-11-16T20:54:05.058Z,1.27
2017-11-16T20:56:36.339Z,1.33
2017-11-16T20:59:06.019Z,1.42
2017-11-16T21:01:35.099Z,1.53
2017-11-16T21:04:08.762Z,1.40
2017-11-16T21:06:36.312Z,1.61
2017-11-16T21:09:05.339Z,1.30
2017-11-16T21:11:32.980Z,1.44
2017-11-16T21:14:05.610Z,1.33
2017-11-16T21:16:37.277Z,1.40
2017-11-16T21:19:05.595Z,1.38
2017-11-16T21:21:38.652Z,1.35
2017-11-16T21:24:06.171Z,1.19
2017-11-16T21:26:33.815Z,1.08
2017-11-16T21:29:01.334Z,1.61
2017-11-16T21:31:33.261Z,1.48
2017-11-16T21:34:00.798Z,1.61
2017-11-16T21:36:29.498Z,1.31
2017-11-16T21:38:57.005Z,1.20
2017-11-16T21:41:24.510Z,1.19
2017-11-16T21:43:53.722Z,1.49
2017-11-16T21:46:24.048Z,1.30
2017-11-16T21:48:56.919Z,1.34
2017-11-16T21:51:58.121Z,1.09
2017-11-16T21:55:05.285Z,1.16
2017-11-16T21:58:26.338Z,1.02
2017-11-16T22:01:39.559Z,1.03
2017-11-16T22:04:24.724Z,1.10
2017-11-16T22:07:26.620Z,1.17
2017-11-16T22:09:54.164Z,1.12
2017-11-16T22:12:21.734Z,1.15
2017-11-16T22:14:49.253Z,1.00
2017-11-16T22:17:16.844Z,1.01
2017-11-16T22:19:44.348Z,1.01
2017-11-16T22:22:11.901Z,0.92
2017-11-16T22:24:39.392Z,0.92
2017-11-16T22:27:06.919Z,0.95
2017-11-16T22:29:34.434Z,0.94
2017-11-16T22:32:01.963Z,0.99
2017-11-16T22:34:29.466Z,1.01
2017-11-16T22:36:56.983Z,0.92
2017-11-16T22:39:24.498Z,0.86
2017-11-16T22:41:52.014Z,0.87
2017-11-16T22:44:19.515Z,0.86
2017-11-16T22:46:47.151Z,0.82
2017-11-16T22:49:14.705Z,0.79
2017-11-16T22:51:42.214Z,0.77
2017-11-16T22:54:09.727Z,0.91
2017-11-16T22:56:37.267Z,1.06
2017-11-16T22:59:04.768Z,0.85
2017-11-16T23:01:32.299Z,0.76
2017-11-16T23:03:59.831Z,0.94
2017-11-16T23:06:27.369Z,0.84
2017-11-16T23:08:55.717Z,0.77
2017-11-16T23:11:23.266Z,1.18
2017-11-16T23:13:50.762Z,0.98
2017-11-16T23:16:18.266Z,1.02
2017-11-16T23:18:45.771Z,0.95
2017-11-16T23:21:13.810Z,0.88
2017-11-16T23:23:41.314Z,0.79
2017-11-16T23:26:08.847Z,0.93
2017-11-16T23:28:36.363Z,0.76
2017-11-16T23:31:03.865Z,0.91
2017-11-16T23:33:31.460Z,1.11
2017-11-16T23:35:58.967Z,0.94
2017-11-16T23:38:26.462Z,0.97
2017-11-16T23:40:54.102Z,0.88
2017-11-16T23:43:21.597Z,1.11
2017-11-16T23:45:49.093Z,1.10
2017-11-16T23:48:16.608Z,0.97
2017-11-16T23:50:44.132Z,1.20
2017-11-16T23:53:11.642Z,1.29
2017-11-16T23:55:39.155Z,1.02
2017-11-16T23:58:06.659Z,1.26
